Time;durP1;ratioP1;P1;durP2;ratioP2;P2;SDS_P1;SDS_P2;PMS_P1;PMS_P2;Temp;Humidity;BMP_temperature;BMP_pressure;BME280_temperature;BME280_humidity;BME280_pressure;Samples;Min_cycle;Max_cycle;Signal;HPM_P1;HPM_P2
2021/09/07 00:46:04;;;;;;;19.17;16.43;;;13.90;95.50;;;12.73;96.82;98647.09;5102371;28;20511;-77
2021/09/07 00:48:31;;;;;;;19.67;17.60;;;13.80;95.50;;;12.65;96.76;98631.03;5103948;28;20443;-77
2021/09/07 00:50:58;;;;;;;18.77;16.97;;;13.80;95.90;;;12.67;97.10;98641.69;5107190;28;20455;-77
2021/09/07 00:53:26;;;;;;;18.80;16.90;;;13.70;96.10;;;12.54;97.35;98637.16;5109893;28;20451;-77
2021/09/07 00:55:57;;;;;;;19.07;17.17;;;13.60;96.30;;;12.56;98.02;98640.47;5107613;28;20466;-77
2021/09/07 00:58:30;;;;;;;19.57;17.57;;;13.60;96.90;;;12.52;97.70;98640.06;5103167;28;20448;-76
2021/09/07 01:00:57;;;;;;;18.87;16.97;;;13.50;97.60;;;12.55;98.08;98644.25;5113170;28;20458;-77
2021/09/07 01:03:25;;;;;;;18.37;16.57;;;13.60;98.00;;;12.61;97.61;98646.94;5104216;28;20472;-77
2021/09/07 01:05:52;;;;;;;18.17;16.40;;;13.60;97.90;;;12.57;97.94;98637.53;5109177;28;20450;-77
2021/09/07 01:08:20;;;;;;;20.07;17.90;;;13.60;98.70;;;12.74;97.88;98651.47;5105121;28;20929;-77
2021/09/07 01:10:47;;;;;;;19.60;16.30;;;13.70;98.10;;;12.79;97.10;98649.97;5105696;28;20451;-77
2021/09/07 01:13:14;;;;;;;20.77;17.97;;;13.70;97.20;;;12.81;96.56;98640.59;5109317;28;20451;-77
2021/09/07 01:15:42;;;;;;;18.10;16.30;;;13.80;96.50;;;12.87;96.34;98633.47;5116604;28;20447;-78
2021/09/07 01:18:09;;;;;;;18.20;16.30;;;13.80;96.10;;;12.84;95.80;98631.22;5108552;28;20459;-77
2021/09/07 01:20:38;;;;;;;19.40;17.50;;;13.80;95.50;;;12.77;95.28;98624.97;5113458;28;21059;-78
2021/09/07 01:23:04;;;;;;;19.90;17.93;;;13.70;95.20;;;12.72;95.74;98629.16;5110613;28;20466;-77
2021/09/07 01:25:33;;;;;;;18.67;16.80;;;13.70;95.40;;;12.57;95.52;98610.44;5107951;28;20444;-76
2021/09/07 01:28:00;;;;;;;18.30;16.40;;;13.60;95.40;;;12.63;95.97;98629.63;5107922;28;20561;-76
2021/09/07 01:30:29;;;;;;;18.63;16.83;;;13.60;95.60;;;12.61;96.03;98643.38;5109167;28;20447;-76
2021/09/07 01:32:56;;;;;;;20.13;16.20;;;13.60;95.60;;;12.47;96.13;98626.34;5111545;28;20495;-77
2021/09/07 01:35:23;;;;;;;18.70;16.77;;;13.50;95.60;;;12.61;95.86;98640.66;5110845;27;20454;-77
2021/09/07 01:37:50;;;;;;;18.83;16.50;;;13.50;95.30;;;12.55;95.78;98638.81;5122266;27;20465;-77
2021/09/07 01:40:17;;;;;;;18.10;16.33;;;13.60;94.90;;;12.51;96.07;98634.84;5106940;28;20458;-77
2021/09/07 01:42:46;;;;;;;19.10;17.10;;;13.50;95.00;;;12.52;95.97;98642.78;5107922;28;20562;-77
2021/09/07 01:45:13;;;;;;;19.53;17.13;;;13.50;95.40;;;12.41;96.25;98635.28;5104345;28;20484;-77
2021/09/07 01:47:41;;;;;;;19.27;17.03;;;13.40;95.60;;;12.36;96.53;98640.53;5114396;28;20442;-77
2021/09/07 01:50:09;;;;;;;19.13;16.70;;;13.40;95.70;;;12.28;96.74;98641.59;5112914;28;20511;-77
2021/09/07 01:52:36;;;;;;;19.43;17.33;;;13.40;96.10;;;12.38;96.39;98643.84;5108326;28;20447;-76
2021/09/07 01:55:04;;;;;;;20.07;18.07;;;13.40;95.80;;;12.32;96.72;98640.09;5093598;28;20470;-76
2021/09/07 01:57:31;;;;;;;17.23;15.60;;;13.40;96.00;;;12.29;96.91;98643.25;5110761;28;20473;-77
2021/09/07 01:59:59;;;;;;;18.30;16.53;;;13.30;95.80;;;12.34;96.52;98646.16;5105113;28;20453;-77
2021/09/07 02:02:28;;;;;;;19.73;17.63;;;13.30;95.80;;;12.28;96.28;98641.59;5110226;28;20447;-75
2021/09/07 02:04:55;;;;;;;21.17;17.10;;;13.30;95.60;;;12.21;96.78;98648.88;5114038;28;20947;-76
2021/09/07 02:07:22;;;;;;;19.47;17.50;;;13.30;95.70;;;12.21;97.09;98648.88;5101866;28;20542;-77
2021/09/07 02:09:49;;;;;;;22.70;18.80;;;13.20;96.00;;;12.18;97.02;98642.84;5113635;28;20467;-78
2021/09/07 02:12:16;;;;;;;19.97;16.77;;;13.20;96.30;;;12.11;97.07;98649.31;5101662;28;20733;-77
2021/09/07 02:14:43;;;;;;;19.80;17.90;;;13.20;96.20;;;12.10;97.25;98648.50;5109680;28;20452;-77
2021/09/07 02:17:12;;;;;;;19.13;16.33;;;13.10;96.70;;;12.00;97.18;98639.91;5088787;28;20474;-77
2021/09/07 02:19:38;;;;;;;22.90;18.23;;;13.10;96.50;;;12.01;97.63;98656.00;5111757;28;20456;-77
2021/09/07 02:22:06;;;;;;;19.87;17.97;;;13.20;97.00;;;11.97;98.11;98657.41;5102366;28;20455;-77
2021/09/07 02:24:33;;;;;;;19.57;17.67;;;13.00;97.50;;;11.95;98.11;98661.38;5106975;28;20818;-77
2021/09/07 02:27:00;;;;;;;19.50;17.40;;;13.00;98.00;;;12.04;98.08;98654.72;5107335;27;20493;-77
2021/09/07 02:29:27;;;;;;;19.93;17.40;;;13.00;98.10;;;12.00;97.57;98650.75;5107571;28;20461;-77
2021/09/07 02:31:54;;;;;;;20.33;18.17;;;13.10;96.70;;;11.81;97.53;98618.06;5101334;28;20463;-77
2021/09/07 02:34:22;;;;;;;21.30;17.87;;;13.10;96.60;;;12.10;97.10;98650.34;5107493;28;20801;-77
2021/09/07 02:36:49;;;;;;;18.50;16.63;;;13.10;95.80;;;12.10;96.84;98643.06;5111077;28;20478;-77
2021/09/07 02:39:16;;;;;;;19.70;17.63;;;13.20;95.80;;;12.01;97.35;98634.34;5101663;28;20469;-76
2021/09/07 02:41:43;;;;;;;19.43;17.40;;;13.10;95.80;;;12.04;97.40;98641.19;5102625;28;20444;-76
2021/09/07 02:44:10;;;;;;;19.50;17.50;;;13.10;96.10;;;12.02;97.82;98640.56;5105020;28;20493;-76
2021/09/07 02:46:37;;;;;;;18.83;16.90;;;13.00;96.90;;;11.89;97.84;98601.59;5108134;28;20496;-76
2021/09/07 02:49:04;;;;;;;17.93;16.20;;;13.10;97.50;;;12.05;97.80;98629.31;5105631;28;20864;-75
2021/09/07 02:51:33;;;;;;;18.17;16.40;;;13.10;96.90;;;12.07;97.21;98621.84;5108881;28;20501;-76
2021/09/07 02:53:59;;;;;;;18.83;16.97;;;13.00;96.60;;;12.04;96.79;98620.38;5110997;28;20451;-77
2021/09/07 02:56:27;;;;;;;18.00;16.10;;;13.00;96.30;;;12.02;97.55;98618.91;5092317;28;20458;-77
2021/09/07 02:58:54;;;;;;;17.70;16.00;;;13.00;96.60;;;11.94;97.53;98597.44;5092300;28;20519;-77
2021/09/07 03:01:20;;;;;;;19.60;17.00;;;13.00;96.60;;;11.88;97.33;98609.94;5087647;28;20912;-76
2021/09/07 03:03:47;;;;;;;22.70;17.80;;;13.00;96.40;;;11.87;97.53;98611.81;5105303;27;20541;-77
2021/09/07 03:06:15;;;;;;;20.93;16.23;;;12.90;96.60;;;11.76;97.93;98588.91;5106141;28;20457;-77
2021/09/07 03:08:43;;;;;;;18.27;16.47;;;12.80;96.60;;;11.88;97.43;98604.53;5106575;27;20455;-76
2021/09/07 03:11:10;;;;;;;18.60;15.80;;;12.90;97.00;;;11.94;97.02;98608.28;5104120;28;20462;-76
2021/09/07 03:13:37;;;;;;;18.20;15.60;;;12.90;96.50;;;11.87;96.96;98611.81;5105919;28;20488;-76
2021/09/07 03:16:05;;;;;;;20.20;16.77;;;12.90;96.10;;;11.88;96.87;98618.06;5102157;28;20480;-76
2021/09/07 03:18:32;;;;;;;19.03;16.90;;;12.90;96.40;;;11.91;96.84;98606.81;5104520;28;20463;-76
2021/09/07 03:20:59;;;;;;;16.87;15.17;;;12.90;96.40;;;11.93;96.35;98603.91;5105729;28;20460;-77
2021/09/07 03:23:26;;;;;;;19.47;16.20;;;12.90;95.80;;;11.84;96.68;98593.28;5100832;28;20462;-77
2021/09/07 03:25:55;;;;;;;18.00;16.10;;;12.90;95.60;;;11.93;96.29;98602.00;5106657;28;20460;-76
2021/09/07 03:28:22;;;;;;;18.13;16.27;;;12.90;95.80;;;11.90;96.72;98595.16;5107880;28;20489;-77
2021/09/07 03:30:49;;;;;;;17.70;15.80;;;13.00;95.50;;;11.83;96.12;98590.75;5112545;28;20452;-77
2021/09/07 03:33:17;;;;;;;18.90;15.37;;;12.90;95.20;;;11.94;95.99;98597.44;5106642;27;20454;-76
2021/09/07 03:35:44;;;;;;;18.53;16.53;;;13.00;95.10;;;11.93;95.99;98599.31;5101001;27;20844;-75
2021/09/07 03:38:12;;;;;;;18.00;16.10;;;13.00;94.80;;;11.89;95.47;98590.75;5103296;28;20470;-76
2021/09/07 03:40:39;;;;;;;17.80;15.77;;;13.00;94.10;;;11.84;95.22;98595.97;5100932;28;20923;-76
2021/09/07 03:43:07;;;;;;;18.47;16.17;;;13.00;93.70;;;11.87;95.71;98606.38;5102583;28;20483;-76
2021/09/07 03:45:34;;;;;;;20.60;18.27;;;13.10;93.80;;;11.86;94.90;98598.50;5108491;28;20466;-76
2021/09/07 03:48:01;;;;;;;18.60;16.80;;;13.00;93.70;;;11.84;95.47;98601.41;5084366;28;20842;-76
2021/09/07 03:50:28;;;;;;;16.77;15.23;;;13.00;93.90;;;11.96;96.25;98604.28;5101113;28;20462;-76
2021/09/07 03:52:55;;;;;;;20.13;16.60;;;13.00;95.00;;;11.92;95.94;98607.66;5107976;28;20465;-76
2021/09/07 03:55:22;;;;;;;17.80;16.00;;;13.00;95.00;;;11.93;95.62;98598.50;5105937;28;20462;-77
2021/09/07 03:57:49;;;;;;;17.70;15.80;;;13.00;95.00;;;12.01;96.13;98609.09;5105113;28;20450;-77
2021/09/07 04:00:19;;;;;;;17.70;15.90;;;13.00;95.20;;;11.99;95.70;98613.88;5105403;28;20812;-77
2021/09/07 04:02:46;;;;;;;19.37;15.60;;;13.00;94.80;;;11.99;95.72;98613.88;5102737;28;20459;-77
2021/09/07 04:05:13;;;;;;;19.50;16.50;;;12.90;94.90;;;12.03;95.56;98620.56;5108076;28;20477;-76
2021/09/07 04:07:40;;;;;;;16.93;15.23;;;13.00;94.60;;;12.02;94.99;98610.78;5112908;28;20461;-77
2021/09/07 04:10:08;;;;;;;17.07;15.37;;;13.00;94.00;;;12.03;94.30;98604.31;5084501;28;20462;-77
2021/09/07 04:12:35;;;;;;;18.17;16.37;;;13.10;93.60;;;12.05;94.39;98607.63;5100664;28;20478;-77
2021/09/07 04:15:02;;;;;;;17.57;15.43;;;13.10;93.10;;;12.11;93.55;98614.09;5104590;28;20467;-77
2021/09/07 04:17:30;;;;;;;16.90;15.10;;;13.20;92.70;;;12.08;93.87;98612.66;5109174;28;20436;-77
2021/09/07 04:19:57;;;;;;;17.87;16.07;;;13.10;92.70;;;12.08;93.46;98611.81;5107469;28;20454;-76
2021/09/07 04:22:24;;;;;;;18.40;16.70;;;13.10;92.70;;;12.07;93.85;98621.84;5105354;28;20459;-76
2021/09/07 04:24:51;;;;;;;19.40;14.97;;;13.10;92.60;;;12.05;93.47;98618.47;5106708;28;20597;-78
2021/09/07 04:27:18;;;;;;;16.93;15.37;;;13.10;92.10;;;12.09;93.08;98638.69;5106712;28;20458;-77
2021/09/07 04:29:45;;;;;;;17.60;15.80;;;13.10;91.80;;;12.01;93.29;98623.50;5103685;28;20457;-77
2021/09/07 04:32:13;;;;;;;16.23;14.53;;;13.20;91.60;;;11.93;93.43;98614.72;5103061;28;20474;-77
2021/09/07 04:34:42;;;;;;;17.33;15.67;;;13.10;91.90;;;12.00;93.27;98627.22;5092563;28;20459;-77
2021/09/07 04:37:09;;;;;;;16.77;15.07;;;13.00;92.10;;;11.91;93.46;98631.19;5106832;28;20789;-78
2021/09/07 04:39:36;;;;;;;16.13;14.50;;;13.00;92.10;;;12.00;93.10;98637.22;5113900;28;20511;-78
2021/09/07 04:42:04;;;;;;;15.90;14.30;;;13.00;92.00;;;11.95;93.54;98637.84;5112767;28;20800;-77
2021/09/07 04:44:31;;;;;;;17.60;15.93;;;13.00;92.10;;;11.92;93.96;98634.72;5115158;28;20479;-78
2021/09/07 04:46:58;;;;;;;16.27;14.70;;;13.00;92.20;;;11.88;93.95;98639.72;5109371;27;20542;-77
2021/09/07 04:49:25;;;;;;;15.43;13.83;;;13.00;92.20;;;11.83;93.51;98624.09;5106866;27;20463;-77
2021/09/07 04:51:53;;;;;;;16.30;14.70;;;13.00;92.20;;;11.92;93.90;98635.53;5108974;28;20965;-77
2021/09/07 04:54:20;;;;;;;17.20;15.50;;;13.00;92.20;;;11.84;93.72;98617.63;5111188;28;20817;-77
2021/09/07 04:56:47;;;;;;;19.10;15.10;;;13.00;92.30;;;12.05;93.13;98637.44;5114863;28;20463;-77
2021/09/07 04:59:14;;;;;;;20.70;15.63;;;13.10;92.10;;;12.01;92.62;98638.88;5107493;27;20462;-77
2021/09/07 05:01:41;;;;;;;17.30;14.37;;;13.10;92.00;;;12.13;92.02;98639.09;5110949;28;20939;-77
2021/09/07 05:04:09;;;;;;;16.93;15.23;;;13.10;91.40;;;12.19;91.84;98646.41;5108956;28;20535;-77
2021/09/07 05:06:36;;;;;;;16.57;14.27;;;13.20;91.00;;;12.23;91.41;98652.22;5106795;28;20895;-77
2021/09/07 05:09:05;;;;;;;16.80;15.00;;;13.20;90.90;;;12.37;90.29;98648.44;5111042;28;21359;-77
2021/09/07 05:11:32;;;;;;;16.23;14.70;;;13.30;90.20;;;12.48;89.17;98636.13;5101657;28;20469;-77
2021/09/07 05:14:00;;;;;;;15.83;14.13;;;13.50;89.40;;;12.61;89.02;98643.38;5105307;28;20896;-78
2021/09/07 05:16:26;;;;;;;17.37;15.67;;;13.60;88.90;;;12.73;88.31;98646.25;5119079;28;20511;-77
2021/09/07 05:18:54;;;;;;;19.90;14.70;;;13.70;88.10;;;12.87;87.66;98647.03;5115693;28;20486;-77
2021/09/07 05:21:21;;;;;;;16.23;14.20;;;13.80;87.50;;;12.93;87.00;98646.16;5110033;28;20462;-78
2021/09/07 05:23:48;;;;;;;19.43;15.30;;;13.90;86.70;;;13.01;86.39;98643.22;5114500;28;20590;-78
2021/09/07 05:26:17;;;;;;;15.20;13.70;;;13.80;85.90;;;13.02;85.87;98653.03;5103162;28;20468;-78
2021/09/07 05:28:45;;;;;;;15.70;14.10;;;14.00;85.40;;;12.95;85.96;98640.53;5104309;28;20455;-79
2021/09/07 05:31:12;;;;;;;16.23;14.73;;;14.00;85.00;;;13.07;85.59;98651.53;5107030;28;20459;-77
2021/09/07 05:33:38;;;;;;;15.73;14.23;;;14.00;84.80;;;13.04;85.37;98655.50;5108855;27;20839;-77
2021/09/07 05:36:05;;;;;;;15.30;13.80;;;14.10;84.60;;;13.08;85.22;98645.91;5108897;28;20456;-77
2021/09/07 05:38:32;;;;;;;16.17;14.43;;;14.10;84.40;;;13.24;84.73;98658.13;5110995;27;20467;-77
2021/09/07 05:40:59;;;;;;;14.93;13.53;;;14.20;84.10;;;13.44;83.83;98658.03;5107668;28;20514;-77
2021/09/07 05:43:28;;;;;;;15.97;14.27;;;14.30;83.80;;;13.50;84.05;98637.34;5109056;28;20496;-77
2021/09/07 05:45:55;;;;;;;15.53;13.80;;;14.40;83.90;;;13.62;83.12;98631.22;5106625;28;20479;-77
2021/09/07 05:48:22;;;;;;;16.87;15.27;;;14.50;83.20;;;13.72;82.38;98647.81;5104528;28;20474;-77
2021/09/07 05:50:49;;;;;;;15.83;14.30;;;14.60;82.40;;;13.75;82.22;98647.41;5110590;27;20458;-78
2021/09/07 05:53:16;;;;;;;17.97;14.17;;;14.70;82.30;;;13.79;81.31;98645.91;5111674;27;20461;-78
2021/09/07 05:55:43;;;;;;;16.37;14.67;;;14.80;81.60;;;13.88;81.50;98658.16;5089832;28;20458;-77
2021/09/07 05:58:10;;;;;;;16.10;14.50;;;14.80;81.10;;;13.81;81.58;98641.06;5110298;28;20454;-78
2021/09/07 06:00:38;;;;;;;18.23;15.10;;;14.90;80.90;;;13.87;80.39;98644.78;5114350;28;20477;-77
2021/09/07 06:03:08;;;;;;;16.90;14.23;;;15.00;80.40;;;13.99;80.27;98658.47;5105589;28;20453;-77
2021/09/07 06:05:36;;;;;;;19.20;13.80;;;15.00;79.80;;;14.23;79.44;98662.22;5110248;28;20558;-76
2021/09/07 06:08:04;;;;;;;16.17;14.07;;;15.20;79.50;;;14.15;79.25;98662.53;5109933;28;20465;-76
2021/09/07 06:10:32;;;;;;;14.40;12.80;;;15.30;78.60;;;14.23;79.28;98656.78;5108135;28;20534;-78
2021/09/07 06:13:00;;;;;;;18.20;15.13;;;15.30;78.70;;;14.39;78.33;98662.69;5109061;27;20476;-77
2021/09/07 06:15:27;;;;;;;15.67;13.93;;;15.40;77.80;;;14.55;77.35;98651.22;5113720;28;20496;-76
2021/09/07 06:17:55;;;;;;;19.40;14.47;;;15.60;77.50;;;14.72;77.03;98656.13;5112005;28;20934;-76
2021/09/07 06:20:23;;;;;;;14.57;12.77;;;15.70;77.00;;;14.99;75.97;98653.91;5111772;28;20459;-76
2021/09/07 06:22:52;;;;;;;18.90;14.50;;;15.90;76.40;;;14.94;75.66;98653.78;5108673;28;20478;-77
2021/09/07 06:25:19;;;;;;;17.73;14.40;;;16.00;75.50;;;14.98;76.53;98654.13;5113013;28;21018;-76
2021/09/07 06:27:46;;;;;;;17.20;13.53;;;16.00;75.40;;;14.97;75.25;98631.53;5093524;28;20451;-76
2021/09/07 06:30:13;;;;;;;21.40;13.73;;;16.10;74.60;;;15.13;74.92;98651.03;5095745;28;20469;-76
2021/09/07 06:32:40;;;;;;;16.83;14.93;;;16.10;74.60;;;15.25;74.53;98653.78;5103392;28;20443;-77
2021/09/07 06:35:10;;;;;;;17.43;14.53;;;16.20;74.10;;;15.38;73.64;98636.41;5108324;28;21004;-76
2021/09/07 06:37:37;;;;;;;21.17;13.10;;;16.30;73.60;;;15.54;73.71;98656.72;5109320;28;20520;-76
2021/09/07 06:40:06;;;;;;;20.13;13.33;;;16.40;73.40;;;15.66;72.49;98643.13;5112054;28;20457;-76
2021/09/07 06:42:33;;;;;;;15.60;14.03;;;16.60;72.50;;;15.76;72.14;98654.28;5107226;28;20474;-77
2021/09/07 06:45:00;;;;;;;17.57;14.90;;;16.70;72.40;;;15.93;71.15;98659.09;5111657;28;20475;-76
2021/09/07 06:47:27;;;;;;;20.50;14.03;;;16.80;71.20;;;15.91;70.62;98661.22;5106454;28;20439;-77
2021/09/07 06:49:54;;;;;;;15.23;13.83;;;16.90;70.60;;;15.95;70.45;98651.50;5105170;28;20754;-78
2021/09/07 06:52:23;;;;;;;14.43;12.77;;;17.00;70.10;;;16.25;69.66;98651.41;5108891;28;20531;-77
2021/09/07 06:54:51;;;;;;;14.43;13.13;;;17.20;70.10;;;16.53;69.15;98657.22;5104530;28;20478;-77
2021/09/07 06:57:18;;;;;;;15.67;14.17;;;17.40;69.60;;;16.41;68.48;98666.22;5102989;28;20566;-77
2021/09/07 06:59:47;;;;;;;15.07;13.77;;;17.50;68.30;;;16.65;68.43;98668.94;5111888;28;20463;-79
2021/09/07 07:02:26;;;;;;;15.77;13.90;;;17.60;68.40;;;17.17;66.02;98666.47;5113993;27;20475;-82
2021/09/07 07:04:54;;;;;;;19.17;12.43;;;18.00;67.70;;;17.59;65.34;98671.63;5098857;28;20477;-83
2021/09/07 07:07:26;;;;;;;15.60;12.40;;;18.30;67.00;;;17.41;63.43;98582.53;5118555;28;20473;-83
2021/09/07 07:09:53;;;;;;;14.70;13.20;;;18.70;65.70;;;18.17;62.38;98662.50;5117353;28;20462;-77
2021/09/07 07:12:20;;;;;;;15.50;13.90;;;19.00;65.00;;;18.23;62.09;98662.34;5102642;28;20551;-81
2021/09/07 07:14:49;;;;;;;15.53;13.90;;;19.10;64.10;;;18.26;62.09;98666.47;5136842;27;20200;-80
2021/09/07 07:17:17;;;;;;;13.83;11.70;;;19.10;63.90;;;18.37;62.03;98664.72;5113070;28;20947;-81
2021/09/07 07:19:46;;;;;;;14.10;12.70;;;19.20;63.80;;;18.25;60.75;98637.47;5111637;28;20454;-78
2021/09/07 07:22:13;;;;;;;14.77;13.40;;;19.30;62.80;;;18.43;62.27;98643.75;5113119;28;20467;-79
2021/09/07 07:24:41;;;;;;;13.07;11.77;;;19.30;63.70;;;18.74;61.58;98644.16;5110413;28;23089;-78
2021/09/07 07:27:09;;;;;;;22.47;12.90;;;19.50;64.00;;;19.04;60.83;98659.34;5109951;28;20525;-78
2021/09/07 07:29:37;;;;;;;14.03;12.17;;;19.70;63.20;;;19.20;60.22;98658.44;5113732;28;20444;-77
2021/09/07 07:32:05;;;;;;;14.90;13.30;;;19.90;62.80;;;19.08;60.03;98644.06;5109317;28;20808;-78
2021/09/07 07:34:32;;;;;;;14.70;12.63;;;19.90;62.40;;;19.22;59.50;98660.91;5114455;28;20481;-80
2021/09/07 07:37:01;;;;;;;15.80;12.27;;;20.10;61.90;;;19.66;59.17;98670.97;5106674;28;20486;-80
2021/09/07 07:39:29;;;;;;;14.80;13.03;;;20.40;62.30;;;19.70;57.72;98674.00;5115620;28;20455;-81
2021/09/07 07:41:57;;;;;;;13.80;12.40;;;20.50;61.00;;;19.78;57.82;98646.94;5115576;28;20956;-79
2021/09/07 07:44:27;;;;;;;16.83;13.30;;;20.70;61.10;;;20.02;56.67;98663.06;5115208;28;20523;-81
2021/09/07 07:46:56;;;;;;;14.30;12.80;;;20.80;60.50;;;20.06;56.80;98682.59;5117014;28;20475;-79
2021/09/07 07:49:23;;;;;;;16.30;12.23;;;20.90;60.30;;;20.27;56.62;98680.84;5096685;28;20462;-78
2021/09/07 07:51:50;;;;;;;18.60;13.47;;;21.00;60.40;;;20.34;56.46;98689.66;5108131;28;20527;-77
2021/09/07 07:54:17;;;;;;;17.57;13.40;;;21.10;59.90;;;20.47;55.43;98684.81;5108388;28;20447;-78
2021/09/07 07:56:44;;;;;;;15.30;12.87;;;21.30;59.70;;;20.41;55.22;98685.88;5105952;28;20501;-78
2021/09/07 07:59:13;;;;;;;16.70;12.83;;;21.40;59.00;;;20.70;54.71;98680.81;5110090;28;20487;-78
2021/09/07 08:01:40;;;;;;;14.00;12.33;;;21.50;59.10;;;20.92;54.94;98685.34;5115068;28;20990;-80
2021/09/07 08:04:08;;;;;;;13.17;11.97;;;21.70;59.20;;;21.21;53.57;98690.41;5100003;28;20458;-80
2021/09/07 08:06:35;;;;;;;13.83;12.43;;;21.90;58.60;;;21.34;52.30;98694.59;5114928;28;20473;-81
2021/09/07 08:09:03;;;;;;;14.43;12.30;;;22.10;57.70;;;21.49;51.59;98693.78;5117594;28;20541;-80
2021/09/07 08:11:31;;;;;;;14.90;12.57;;;22.20;57.30;;;21.26;50.95;98681.34;5121567;28;20451;-80
2021/09/07 08:14:00;;;;;;;12.80;11.50;;;22.30;56.60;;;21.66;50.83;98690.84;5118390;28;20447;-80
2021/09/07 08:16:29;;;;;;;12.80;11.43;;;22.40;56.70;;;21.57;49.72;98652.03;5119247;28;20451;-80
2021/09/07 08:18:56;;;;;;;13.13;11.80;;;22.60;56.40;;;21.64;49.64;98696.56;5097896;28;20456;-80
2021/09/07 08:21:24;;;;;;;14.07;11.37;;;22.70;55.80;;;21.58;50.01;98697.69;5117931;28;20572;-80
2021/09/07 08:23:52;;;;;;;14.43;12.87;;;22.60;55.60;;;21.26;50.02;98703.34;5122955;28;20514;-79
2021/09/07 08:26:19;;;;;;;14.33;12.93;;;22.40;55.20;;;21.33;50.54;98703.94;5122285;27;20455;-79
2021/09/07 08:28:47;;;;;;;16.00;12.57;;;22.30;55.40;;;21.03;50.81;98697.22;5119655;28;20462;-81
2021/09/07 08:31:15;;;;;;;13.83;11.70;;;22.20;55.40;;;21.48;50.19;98698.47;5103677;28;20452;-80
2021/09/07 08:33:44;;;;;;;13.50;12.00;;;22.30;55.70;;;21.69;49.18;98659.25;5123636;28;20453;-80
2021/09/07 08:36:11;;;;;;;14.33;10.77;;;22.50;55.40;;;22.05;48.72;98689.50;5113536;27;20554;-78
2021/09/07 08:38:39;;;;;;;17.20;11.80;;;22.80;55.20;;;22.00;49.68;98684.81;5118240;28;20443;-79
2021/09/07 08:41:06;;;;;;;12.10;10.90;;;22.90;55.50;;;21.65;50.55;98691.91;5117392;28;20475;-81
2021/09/07 08:43:36;;;;;;;17.17;11.90;;;22.80;55.60;;;21.87;49.67;98688.13;5107483;28;20889;-79
2021/09/07 08:46:03;;;;;;;12.10;11.00;;;22.70;55.40;;;21.97;49.05;98688.13;5108265;28;20462;-79
2021/09/07 08:48:31;;;;;;;12.17;10.97;;;22.80;55.40;;;22.00;48.76;98692.28;5122085;28;20455;-80
2021/09/07 08:51:01;;;;;;;12.90;11.70;;;22.90;55.10;;;22.19;47.95;98696.13;5096488;28;20501;-81
2021/09/07 08:53:34;;;;;;;13.60;12.20;;;23.00;54.60;;;21.95;49.74;98684.84;5115862;28;20879;-80
2021/09/07 08:56:02;;;;;;;13.53;11.73;;;22.90;55.50;;;22.10;50.00;98699.69;5121441;28;20803;-84
2021/09/07 08:58:29;;;;;;;13.03;11.87;;;22.90;56.10;;;21.89;49.07;98688.66;5117096;27;20450;-83
2021/09/07 09:00:57;;;;;;;14.47;11.87;;;22.70;55.10;;;21.83;49.17;98692.53;5114246;28;20459;-88
2021/09/07 09:03:25;;;;;;;12.80;11.30;;;22.80;54.90;;;21.96;49.79;98697.47;5119949;27;20491;-84
2021/09/07 09:06:03;;;;;;;12.30;10.97;;;22.80;55.10;;;22.38;48.40;98703.00;5124857;28;20474;-85
2021/09/07 09:08:30;;;;;;;13.00;11.80;;;23.10;55.00;;;22.50;47.27;98689.75;5114504;28;20452;-81
2021/09/07 09:13:51;;;;;;;13.60;10.97;;;23.50;53.50;;;22.93;44.81;98698.47;5112485;28;20475;-83
2021/09/07 09:16:20;;;;;;;12.93;11.63;;;23.70;53.10;;;22.97;45.69;98693.22;5121124;28;20531;-84
2021/09/07 09:18:50;;;;;;;13.70;11.20;;;23.80;53.50;;;23.02;45.01;98686.88;5115733;28;21116;-81
2021/09/07 09:21:32;;;;;;;14.77;11.87;;;23.80;53.00;;;23.06;43.58;98696.22;5112166;28;20587;-83
2021/09/07 09:24:19;;;;;;;12.00;10.10;;;23.70;51.90;;;23.21;42.10;98682.38;5115238;28;20870;-84
2021/09/07 09:27:03;;;;;;;12.83;11.53;;;23.90;51.50;;;23.26;42.55;98639.34;5109958;28;20470;-84
2021/09/07 09:29:36;;;;;;;15.30;11.17;;;24.20;51.90;;;23.77;43.88;98679.59;5114619;28;20538;-83
2021/09/07 09:32:09;;;;;;;16.93;11.87;;;24.60;52.90;;;23.88;43.63;98694.13;5108500;28;20452;-82
2021/09/07 09:34:42;;;;;;;15.90;11.20;;;24.70;52.60;;;24.29;43.47;98690.28;5113912;28;20468;-85
2021/09/07 09:37:16;;;;;;;12.40;11.10;;;24.90;52.90;;;23.85;42.41;98673.50;5120594;27;20451;-84
2021/09/07 09:39:49;;;;;;;14.33;11.83;;;24.80;51.60;;;23.88;42.50;98672.06;5123764;28;20444;-85
2021/09/07 09:42:23;;;;;;;14.73;11.33;;;24.60;51.80;;;23.52;43.62;98658.53;5124124;28;20571;-81
2021/09/07 09:45:00;;;;;;;13.57;11.37;;;24.60;52.10;;;23.79;43.39;98690.38;5102543;28;20460;-83
2021/09/07 09:47:38;;;;;;;12.90;11.67;;;24.50;52.10;;;23.64;43.16;98681.06;5115652;28;20490;-82
2021/09/07 09:50:11;;;;;;;13.10;11.70;;;24.40;52.00;;;23.67;44.02;98666.72;5119856;28;20823;-84
2021/09/07 09:52:45;;;;;;;15.50;11.63;;;24.40;52.50;;;23.42;44.35;98676.78;5130744;28;20430;-83
2021/09/07 09:55:17;;;;;;;12.90;11.50;;;24.20;52.30;;;23.33;45.24;98675.75;5125423;28;20853;-82
2021/09/07 09:57:46;;;;;;;14.00;12.10;;;24.10;52.90;;;23.37;45.19;98676.00;5111448;28;20455;-84
2021/09/07 10:00:19;;;;;;;15.07;11.80;;;24.20;52.90;;;23.49;45.36;98681.97;5128856;27;20470;-85
2021/09/07 10:02:48;;;;;;;13.40;12.10;;;24.10;53.30;;;23.53;43.58;98655.50;5134956;27;20462;-84
2021/09/07 10:05:21;;;;;;;12.67;11.47;;;24.30;52.30;;;23.69;43.93;98675.53;5109899;28;20455;-87
2021/09/07 10:10:32;;;;;;;12.60;11.27;;;24.40;52.60;;;23.53;44.77;98652.75;5117616;28;20455;-86
2021/09/07 10:13:03;;;;;;;13.90;11.43;;;24.40;52.60;;;23.61;45.08;98656.84;5110410;28;20515;-85
2021/09/07 10:15:39;;;;;;;11.93;10.60;;;24.40;53.00;;;23.80;45.18;98675.47;5091924;28;20641;-85
2021/09/07 10:18:41;;;;;;;12.07;10.60;;;24.50;52.90;;;23.72;44.61;98654.81;5107801;28;20460;-85
2021/09/07 10:23:01;;;;;;;11.10;10.10;;;24.60;52.60;;;23.78;43.64;98656.41;5115281;28;20484;-86
2021/09/07 10:24:16;;;;;;;12.13;10.57;;;24.50;52.60;;;23.98;42.01;98666.47;5112648;27;20454;-83
2021/09/07 10:26:55;;;;;;;11.63;10.63;;;24.60;51.40;;;24.01;42.64;98665.09;5107809;28;20557;-80
2021/09/07 10:29:45;;;;;;;10.80;9.77;;;24.70;51.50;;;24.03;42.26;98641.63;5112357;28;20459;-83
2021/09/07 10:32:33;;;;;;;12.13;9.90;;;24.90;51.30;;;24.39;42.23;98658.97;5092134;28;20451;-79
2021/09/07 10:35:15;;;;;;;11.70;10.53;;;25.10;51.50;;;24.93;39.83;98661.72;5102667;28;20447;-86
2021/09/07 10:38:10;;;;;;;11.30;10.10;;;25.50;50.60;;;24.79;40.38;98626.50;5093081;28;20458;-87
2021/09/07 10:40:54;;;;;;;13.33;10.70;;;25.70;50.60;;;25.06;39.96;98655.47;5115446;28;20463;-86
2021/09/07 10:43:52;;;;;;;14.23;10.97;;;25.70;50.40;;;24.88;39.19;98648.81;5118940;28;20478;-87
2021/09/07 10:46:51;;;;;;;11.33;10.23;;;25.60;49.70;;;24.68;38.84;98598.16;5114439;28;20542;-84
2021/09/07 10:49:44;;;;;;;10.33;9.43;;;25.70;49.50;;;25.09;38.64;98646.59;5101184;28;20440;-86
2021/09/07 10:52:34;;;;;;;11.23;10.00;;;25.80;49.40;;;25.17;38.77;98623.81;5119023;28;20538;-86
2021/09/07 10:55:38;;;;;;;11.33;10.23;;;26.00;49.20;;;25.35;38.35;98640.72;5097119;28;20496;-86
2021/09/07 10:58:08;;;;;;;9.63;8.67;;;25.90;49.30;;;25.40;40.67;98648.97;5118050;27;20456;-87
2021/09/07 11:00:47;;;;;;;11.10;10.10;;;26.00;50.60;;;25.01;38.84;98592.00;5116262;28;20448;-85
2021/09/07 11:03:26;;;;;;;10.63;9.63;;;26.10;49.30;;;25.88;37.88;98634.13;5125568;28;20495;-84
2021/09/07 11:06:06;;;;;;;9.90;9.00;;;26.40;49.20;;;26.48;35.99;98630.91;5116105;28;20455;-85